Terminal Aerodrome Forecast
Issued by NWS Billings, MT

Home | Current Version | Previous Version | Text Only | Print | Product List | Glossary Off
Versions: 1 2 3 4 5 6 7 8 9 10 11 12 13 14 15 16 17 18 19 20 21 22 23 24 25 26 27 28 29 30 31 32 33 34

000
FTUS45 KBYZ 271121
TAFMLS
TAF
KMLS 271121Z 2712/2812 16012KT P6SM FEW120
     FM271500 26007KT P6SM SCT120
     FM271800 31015G25KT P6SM VCTS SCT050CB BKN100
     FM280300 30014KT P6SM FEW050 SCT120
     FM280900 VRB05KT P6SM SKC=

USA.gov is the U.S. government's official web portal to all federal, state and local government web resources and services.